Time;durP1;ratioP1;P1;durP2;ratioP2;P2;SDS_P1;SDS_P2;PMS_P1;PMS_P2;Temp;Humidity;BMP_temperature;BMP_pressure;BME280_temperature;BME280_humidity;BME280_pressure;Samples;Min_cycle;Max_cycle;Signal;HPM_P1;HPM_P2
2023/10/07 00:02:12;;;;;;;1999.90;999.90;;;;;;;14.38;100.00;102000.41;10539965;28;20127;-71
2023/10/07 00:07:14;;;;;;;1999.90;999.90;;;;;;;14.45;100.00;101993.03;10522050;28;20070;-72
2023/10/07 00:12:19;;;;;;;1999.90;999.90;;;;;;;14.40;100.00;101987.16;10521464;28;20486;-71
2023/10/07 00:17:21;;;;;;;1999.90;999.90;;;;;;;14.37;100.00;101974.16;10522158;28;20051;-71
2023/10/07 00:22:26;;;;;;;1999.90;999.90;;;;;;;14.39;100.00;101974.91;10521256;28;20447;-70
2023/10/07 00:27:31;;;;;;;1999.90;999.90;;;;;;;14.42;100.00;102011.63;10539508;28;20131;-71
2023/10/07 00:32:33;;;;;;;1999.90;999.90;;;;;;;14.19;100.00;102011.09;10538804;28;20044;-71
2023/10/07 00:37:37;;;;;;;1999.90;999.90;;;;;;;14.40;100.00;102006.44;10521564;28;20040;-72
2023/10/07 00:42:45;;;;;;;1999.90;999.90;;;;;;;14.23;100.00;102006.50;10520866;28;20105;-68
2023/10/07 00:47:49;;;;;;;1999.90;999.90;;;;;;;14.20;100.00;102019.84;10520885;28;20462;-71
2023/10/07 00:58:13;;;;;;;1999.90;999.90;;;;;;;14.16;100.00;102000.72;10528988;28;20044;-71
2023/10/07 01:08:27;;;;;;;1999.90;999.90;;;;;;;14.18;100.00;101988.31;10528291;28;20063;-72
2023/10/07 01:13:29;;;;;;;1999.90;999.90;;;;;;;14.18;100.00;101990.94;10545616;28;20056;-71
2023/10/07 01:18:39;;;;;;;1999.90;999.90;;;;;;;14.15;100.00;101992.91;10528123;28;20127;-71
2023/10/07 01:23:45;;;;;;;1999.90;999.90;;;;;;;14.19;100.00;101979.50;10545814;28;20047;-71
2023/10/07 01:28:56;;;;;;;1999.90;999.90;;;;;;;14.09;100.00;101980.91;10511503;28;20044;-71
2023/10/07 01:34:01;;;;;;;1999.90;999.90;;;;;;;14.07;100.00;102004.69;10528825;28;20048;-71
2023/10/07 01:39:06;;;;;;;1999.90;999.90;;;;;;;14.06;100.00;102002.13;10526622;28;20390;-71
2023/10/07 01:44:09;;;;;;;1999.90;999.90;;;;;;;14.11;100.00;102010.66;10526740;28;20122;-71
2023/10/07 01:49:12;;;;;;;1999.90;999.90;;;;;;;14.04;100.00;101994.31;10544064;28;20489;-72
2023/10/07 01:54:14;;;;;;;1999.90;999.90;;;;;;;14.13;100.00;101988.53;10544538;28;20079;-71
2023/10/07 01:59:20;;;;;;;1999.90;999.90;;;;;;;14.16;100.00;101991.97;10526532;28;20119;-72
2023/10/07 02:04:28;;;;;;;1999.90;999.90;;;;;;;14.11;100.00;101979.03;10526207;28;20123;-71
2023/10/07 02:09:40;;;;;;;1999.90;999.90;;;;;;;14.00;100.00;101982.22;10543867;28;20047;-70
2023/10/07 02:14:43;;;;;;;1999.90;999.90;;;;;;;14.22;100.00;101981.09;10525814;28;20051;-71
2023/10/07 02:19:47;;;;;;;1999.90;999.90;;;;;;;14.17;100.00;101981.34;10542949;28;20052;-71
2023/10/07 02:25:01;;;;;;;1999.90;999.90;;;;;;;14.24;100.00;101969.56;10543330;28;20051;-71
2023/10/07 02:30:05;;;;;;;1999.90;999.90;;;;;;;14.24;100.00;101985.34;10543113;28;20098;-71
2023/10/07 02:35:09;;;;;;;1999.90;999.90;;;;;;;14.28;100.00;101981.59;10542330;28;20078;-71
2023/10/07 02:40:24;;;;;;;1999.90;999.90;;;;;;;14.35;100.00;101982.13;10542385;28;20084;-71
2023/10/07 02:45:29;;;;;;;1999.90;999.90;;;;;;;14.36;100.00;101980.38;10541872;28;20054;-71
2023/10/07 02:50:32;;;;;;;1999.90;999.90;;;;;;;14.42;100.00;101985.28;10541746;28;20048;-72
2023/10/07 02:55:46;;;;;;;1999.90;999.90;;;;;;;14.36;100.00;101975.09;10542160;28;20044;-71
2023/10/07 03:00:51;;;;;;;1999.90;999.90;;;;;;;14.36;100.00;101977.72;10541959;28;20052;-71
2023/10/07 03:05:58;;;;;;;1999.90;999.90;;;;;;;14.37;100.00;101968.88;10541066;28;20417;-71
2023/10/07 03:11:04;;;;;;;1999.90;999.90;;;;;;;14.41;100.00;101966.00;10524371;28;20058;-72
2023/10/07 03:16:27;;;;;;;1999.90;999.90;;;;;;;14.48;100.00;101964.72;10522859;28;20127;-71
2023/10/07 03:26:47;;;;;;;1999.90;999.90;;;;;;;14.46;100.00;101971.84;10524427;28;20075;-72
2023/10/07 03:31:49;;;;;;;1999.90;999.90;;;;;;;14.52;100.00;101968.03;10522936;28;20513;-71
2023/10/07 03:37:34;;;;;;;1999.90;999.90;;;;;;;14.52;100.00;101961.91;10540691;28;20051;-73
2023/10/07 03:42:17;;;;;;;1999.90;999.90;;;;;;;14.56;100.00;101960.78;10515004;28;20493;-72
2023/10/07 03:47:19;;;;;;;1999.90;999.90;;;;;;;14.60;100.00;101954.47;10540306;28;20127;-71
2023/10/07 03:52:27;;;;;;;1999.90;999.90;;;;;;;14.59;100.00;101951.00;10522402;28;20048;-71
2023/10/07 03:57:30;;;;;;;1999.90;999.90;;;;;;;14.64;100.00;101954.22;10523471;28;20044;-71
2023/10/07 04:02:36;;;;;;;1999.90;999.90;;;;;;;14.63;100.00;101957.78;10540007;28;20076;-71
2023/10/07 04:07:39;;;;;;;1999.90;999.90;;;;;;;14.55;100.00;101953.84;10539973;28;20048;-72
2023/10/07 04:12:44;;;;;;;1999.90;999.90;;;;;;;14.60;100.00;101938.66;10522101;28;20051;-72
2023/10/07 04:17:46;;;;;;;1999.90;999.90;;;;;;;14.68;100.00;101939.06;10539802;28;20049;-72
2023/10/07 04:23:00;;;;;;;1999.90;999.90;;;;;;;14.68;100.00;101939.06;10539652;28;20055;-72
2023/10/07 04:28:06;;;;;;;1999.90;999.90;;;;;;;14.72;100.00;101955.56;10540556;28;20044;-72
2023/10/07 04:33:10;;;;;;;1999.90;999.90;;;;;;;14.63;100.00;101957.78;10547869;28;20122;-72
2023/10/07 04:43:36;;;;;;;1999.90;999.90;;;;;;;14.71;100.00;101965.25;10546818;28;20066;-72
2023/10/07 04:48:54;;;;;;;1999.90;999.90;;;;;;;14.73;100.00;101968.66;10530640;28;20041;-71
2023/10/07 04:53:57;;;;;;;1999.90;999.90;;;;;;;14.86;100.00;101966.16;10564222;22;20125;-63
2023/10/07 04:59:00;;;;;;;1999.90;999.90;;;;;;;14.81;100.00;101969.06;10462168;28;20044;-64
2023/10/07 05:04:04;;;;;;;1999.90;999.90;;;;;;;14.86;100.00;101958.25;10463403;28;20051;-64
2023/10/07 05:09:21;;;;;;;1999.90;999.90;;;;;;;14.91;100.00;101964.13;10463086;28;20056;-63
2023/10/07 05:14:25;;;;;;;1999.90;999.90;;;;;;;15.01;100.00;101964.44;10447114;28;20099;-64
2023/10/07 05:19:28;;;;;;;1999.90;999.90;;;;;;;15.01;100.00;101967.06;10445126;28;20128;-64
2023/10/07 05:24:32;;;;;;;1999.90;999.90;;;;;;;14.98;100.00;101968.13;10461907;28;20500;-64
2023/10/07 05:29:35;;;;;;;1999.90;999.90;;;;;;;15.02;100.00;101966.16;10445036;28;20095;-64
2023/10/07 05:34:37;;;;;;;1999.90;999.90;;;;;;;15.09;100.00;101950.81;10462128;28;20132;-63
2023/10/07 05:39:41;;;;;;;1999.90;999.90;;;;;;;15.03;100.00;101941.47;10460419;28;20441;-64
2023/10/07 05:44:44;;;;;;;1999.90;999.90;;;;;;;15.07;100.00;101945.63;10444284;28;20055;-63
2023/10/07 05:49:46;;;;;;;1999.90;999.90;;;;;;;15.08;100.00;101957.00;10460914;28;20107;-63
2023/10/07 05:54:51;;;;;;;1999.90;999.90;;;;;;;15.17;100.00;101946.78;10461081;28;20077;-64
2023/10/07 05:59:54;;;;;;;1999.90;999.90;;;;;;;15.20;100.00;101956.31;10460609;28;20151;-64
2023/10/07 06:04:56;;;;;;;1999.90;999.90;;;;;;;15.24;100.00;101961.31;10461022;28;20057;-64
2023/10/07 06:10:02;;;;;;;1999.90;999.90;;;;;;;15.30;100.00;101978.59;10427051;28;20091;-64
2023/10/07 06:15:08;;;;;;;1999.90;999.90;;;;;;;15.36;100.00;101983.47;10460476;28;20102;-64
2023/10/07 06:20:26;;;;;;;1999.90;999.90;;;;;;;15.41;100.00;101984.06;10460484;28;20045;-64
2023/10/07 06:25:30;;;;;;;1999.90;999.90;;;;;;;15.48;100.00;101986.34;10459642;28;20461;-63
2023/10/07 06:30:33;;;;;;;1999.90;999.90;;;;;;;15.44;100.00;101990.97;10425514;28;20056;-64
2023/10/07 06:35:38;;;;;;;1999.90;999.90;;;;;;;15.52;100.00;101990.53;10459829;28;20128;-63
2023/10/07 06:40:43;;;;;;;1999.90;999.90;;;;;;;15.64;100.00;101994.22;10459534;28;20056;-64
2023/10/07 06:45:46;;;;;;;1999.90;999.90;;;;;;;15.67;100.00;102007.22;10458750;28;20413;-64
2023/10/07 06:50:52;;;;;;;1999.90;999.90;;;;;;;15.70;100.00;101994.69;10459040;28;20045;-64
2023/10/07 06:55:55;;;;;;;1999.90;999.90;;;;;;;15.83;100.00;101988.69;10458575;28;20063;-64
2023/10/07 07:01:09;;;;;;;1999.90;999.90;;;;;;;15.73;100.00;102020.06;10457930;28;20135;-68
2023/10/07 07:06:16;;;;;;;1999.90;999.90;;;;;;;15.85;100.00;102013.22;10442216;28;20497;-68
2023/10/07 07:11:19;;;;;;;1999.90;999.90;;;;;;;15.87;100.00;102013.97;10440197;28;20527;-68
2023/10/07 07:16:24;;;;;;;1999.90;999.90;;;;;;;15.92;100.00;102002.19;10440537;28;20084;-68
2023/10/07 07:21:31;;;;;;;1999.90;999.90;;;;;;;15.95;100.00;102011.72;10440410;28;20052;-68
2023/10/07 07:26:34;;;;;;;1999.90;999.90;;;;;;;15.88;100.00;102013.03;10457842;28;20063;-64
2023/10/07 07:31:38;;;;;;;1999.90;999.90;;;;;;;15.91;100.00;102008.41;10440012;28;20059;-66
2023/10/07 07:36:47;;;;;;;1999.90;999.90;;;;;;;15.90;100.00;102017.28;10457431;28;20049;-68
2023/10/07 07:41:56;;;;;;;1999.90;999.90;;;;;;;15.91;100.00;102003.13;10457458;28;20140;-68
2023/10/07 07:47:02;;;;;;;1999.90;999.90;;;;;;;16.00;100.00;102016.72;10457356;28;20051;-68
2023/10/07 07:52:08;;;;;;;1999.90;999.90;;;;;;;16.11;100.00;102001.91;10440013;28;20133;-68
2023/10/07 07:57:12;;;;;;;1999.90;999.90;;;;;;;16.33;100.00;102011.16;10456391;28;20076;-68
2023/10/07 08:02:16;;;;;;;1999.90;999.90;;;;;;;16.50;100.00;101999.50;10439140;28;20053;-68
2023/10/07 08:07:23;;;;;;;1999.90;999.90;;;;;;;16.63;100.00;102023.38;10439325;28;20454;-68
2023/10/07 08:12:30;;;;;;;1999.90;999.90;;;;;;;16.78;100.00;102032.97;10456117;28;20485;-67
2023/10/07 08:17:33;;;;;;;1999.90;999.90;;;;;;;17.26;100.00;102027.25;10456040;28;20075;-67
2023/10/07 08:22:44;;;;;;;1999.90;999.90;;;;;;;18.34;100.00;102019.91;10455880;28;20152;-66
2023/10/07 08:27:51;;;;;;;1999.90;999.90;;;;;;;18.30;100.00;101999.91;10439432;28;20053;-67
2023/10/07 08:32:54;;;;;;;1999.90;999.90;;;;;;;18.41;97.80;101986.72;10456341;28;20049;-66
2023/10/07 08:37:57;;;;;;;1999.90;999.90;;;;;;;19.06;97.93;101985.56;10438450;28;20107;-66
2023/10/07 08:42:59;;;;;;;1999.90;999.90;;;;;;;19.12;96.43;101977.09;10456110;28;20076;-66
2023/10/07 08:48:16;;;;;;;1999.90;999.90;;;;;;;19.79;91.96;101972.09;10438269;28;20063;-70
2023/10/07 08:53:23;;;;;;;1999.90;999.90;;;;;;;19.61;89.59;101982.31;10440724;28;20052;-67
2023/10/07 08:58:26;;;;;;;1999.90;999.90;;;;;;;19.98;88.66;101980.31;10454992;28;20055;-68
2023/10/07 09:03:28;;;;;;;1999.90;999.90;;;;;;;20.26;86.29;101974.59;10437958;28;20088;-68
2023/10/07 09:08:33;;;;;;;1999.90;999.90;;;;;;;21.38;82.43;101981.38;10421972;28;20061;-69
2023/10/07 09:13:38;;;;;;;1999.90;999.90;;;;;;;20.59;84.23;101990.53;10454847;28;20513;-66
2023/10/07 09:18:41;;;;;;;1999.90;999.90;;;;;;;20.84;82.40;101974.41;10461747;28;20049;-67
2023/10/07 09:23:59;;;;;;;1999.90;999.90;;;;;;;21.98;77.62;101967.44;10462001;28;20057;-67
2023/10/07 09:29:21;;;;;;;1999.90;999.90;;;;;;;22.68;77.50;101955.00;10446060;28;20053;-66
2023/10/07 09:40:19;;;;;;;1999.90;999.90;;;;;;;21.78;79.54;101978.00;10447156;28;20052;-67
2023/10/07 09:45:17;;;;;;;1999.90;999.90;;;;;;;22.99;73.61;101970.88;10459772;28;20413;-66
2023/10/07 09:50:25;;;;;;;1999.90;999.90;;;;;;;23.51;74.33;101971.38;10461562;28;20041;-67
2023/10/07 10:09:15;;;;;;;;;;;;;;;23.73;67.91;101978.22;10576571;27;20786;-64
2023/10/07 10:14:18;;;;;;;1999.90;999.90;;;;;;;24.09;67.61;101983.75;10576228;28;19919;-64
2023/10/07 10:19:25;;;;;;;1999.90;999.90;;;;;;;23.83;66.33;101999.59;10575585;28;20507;-63
2023/10/07 10:24:28;;;;;;;1999.90;999.90;;;;;;;23.49;67.53;102002.75;10574728;28;20411;-72
2023/10/07 10:29:36;;;;;;;1999.90;999.90;;;;;;;25.09;66.22;101999.84;10575757;28;20054;-71
2023/10/07 10:34:39;;;;;;;1999.90;999.90;;;;;;;24.03;66.22;101995.03;10574837;28;20385;-66
2023/10/07 10:39:41;;;;;;;1999.90;999.90;;;;;;;24.82;65.46;101990.91;10575265;28;20063;-67
2023/10/07 10:44:48;;;;;;;1999.90;999.90;;;;;;;25.24;61.27;101986.75;10575139;28;20047;-67
2023/10/07 10:49:54;;;;;;;1999.90;999.90;;;;;;;25.83;62.01;101989.66;10575019;28;20048;-67
2023/10/07 10:55:00;;;;;;;1999.90;999.90;;;;;;;25.58;61.35;101977.94;10573565;28;20101;-67
2023/10/07 11:00:11;;;;;;;1999.90;999.90;;;;;;;25.33;61.94;101975.09;10573862;28;20419;-66
2023/10/07 11:05:13;;;;;;;1999.90;999.90;;;;;;;24.23;64.11;101977.03;10573534;28;20535;-65
2023/10/07 11:10:23;;;;;;;1999.90;999.90;;;;;;;25.03;61.91;101987.06;10545748;28;20055;-74
2023/10/07 11:15:25;;;;;;;1999.90;999.90;;;;;;;23.33;68.09;101973.09;10545865;28;20040;-69
2023/10/07 11:20:39;;;;;;;1999.90;999.90;;;;;;;24.28;64.33;101965.91;10543846;28;20481;-69
2023/10/07 11:25:42;;;;;;;1999.90;999.90;;;;;;;23.76;67.14;101977.09;10544346;28;20076;-67
2023/10/07 11:30:49;;;;;;;1999.90;999.90;;;;;;;25.68;61.89;101969.81;10545243;28;20048;-70
2023/10/07 11:35:59;;;;;;;1999.90;999.90;;;;;;;23.68;63.07;101979.66;10543850;28;20074;-68
2023/10/07 11:41:06;;;;;;;1999.90;999.90;;;;;;;23.81;64.40;101984.69;10544282;28;20577;-68
2023/10/07 11:46:11;;;;;;;1999.90;999.90;;;;;;;25.07;64.19;101971.53;10544603;28;20044;-67
2023/10/07 11:51:14;;;;;;;1999.90;999.90;;;;;;;25.70;61.44;101978.53;10510715;28;20083;-68
2023/10/07 11:56:17;;;;;;;1999.90;999.90;;;;;;;23.19;62.01;101985.91;10543512;28;20048;-66
2023/10/07 12:01:20;;;;;;;1999.90;999.90;;;;;;;24.29;62.52;101983.63;10543339;28;20480;-65
2023/10/07 12:06:24;;;;;;;1999.90;999.90;;;;;;;23.69;63.26;101987.53;10543001;28;20420;-66
2023/10/07 12:11:26;;;;;;;1999.90;999.90;;;;;;;24.08;61.98;101989.25;10541779;28;20053;-65
2023/10/07 12:16:32;;;;;;;1999.90;999.90;;;;;;;24.25;62.73;101992.94;10543157;28;20082;-65
2023/10/07 12:21:35;;;;;;;1999.90;999.90;;;;;;;24.26;64.18;101982.09;10541634;28;20480;-66
2023/10/07 12:26:40;;;;;;;1999.90;999.90;;;;;;;23.81;64.45;101976.66;10544202;28;20068;-68
2023/10/07 12:31:44;;;;;;;1999.90;999.90;;;;;;;24.33;62.44;101982.34;10542847;28;20085;-69
2023/10/07 12:36:47;;;;;;;1999.90;999.90;;;;;;;23.81;63.81;101990.84;10575350;27;20093;-66
2023/10/07 12:41:50;;;;;;;1999.90;999.90;;;;;;;25.00;62.00;101984.72;10541337;28;20048;-66
2023/10/07 12:46:54;;;;;;;1999.90;999.90;;;;;;;23.99;64.33;101988.28;10574954;27;20044;-69
2023/10/07 12:51:57;;;;;;;1999.90;999.90;;;;;;;23.90;66.33;101984.66;10541428;28;20389;-71
2023/10/07 12:56:59;;;;;;;1999.90;999.90;;;;;;;23.43;67.82;101987.28;10539949;28;20040;-71
2023/10/07 13:17:05;;;;;;;1999.90;999.90;;;;;;;23.52;70.85;101935.66;10576174;27;20384;-73
2023/10/07 13:22:08;;;;;;;1999.90;999.90;;;;;;;22.62;71.73;101932.34;10576250;28;20047;-73
2023/10/07 13:27:10;;;;;;;1999.90;999.90;;;;;;;23.04;71.30;101949.09;10576157;28;20047;-73
2023/10/07 13:32:13;;;;;;;1999.90;999.90;;;;;;;22.98;71.78;101929.97;10575966;28;20044;-73
2023/10/07 13:37:17;;;;;;;1999.90;999.90;;;;;;;23.43;71.09;101946.38;10575089;28;20507;-72
2023/10/07 13:42:23;;;;;;;1999.90;999.90;;;;;;;22.70;73.59;101933.50;10575474;28;20043;-69
2023/10/07 13:47:26;;;;;;;1999.90;999.90;;;;;;;22.22;73.44;101961.75;10575353;28;20054;-68
2023/10/07 13:52:39;;;;;;;1999.90;999.90;;;;;;;21.97;73.89;101941.75;10573944;28;20048;-68
2023/10/07 13:57:42;;;;;;;1999.90;999.90;;;;;;;22.18;75.71;101952.34;10573262;28;20408;-68
2023/10/07 14:02:44;;;;;;;1999.90;999.90;;;;;;;22.16;75.74;101947.16;10574615;28;20048;-66
2023/10/07 14:07:48;;;;;;;1999.90;999.90;;;;;;;21.24;78.38;101942.63;10573932;28;20484;-66
2023/10/07 14:12:53;;;;;;;1999.90;999.90;;;;;;;21.84;78.18;101947.31;10572897;28;20047;-65
2023/10/07 14:17:55;;;;;;;1999.90;999.90;;;;;;;21.81;76.70;101943.09;10546909;28;20048;-66
2023/10/07 14:22:59;;;;;;;1999.90;999.90;;;;;;;21.37;77.22;101946.88;10545077;28;20048;-66
2023/10/07 14:28:01;;;;;;;1999.90;999.90;;;;;;;22.04;76.50;101943.75;10544455;28;20052;-66
2023/10/07 14:33:04;;;;;;;1999.90;999.90;;;;;;;21.95;75.92;101944.53;10545356;28;20048;-66
2023/10/07 14:38:10;;;;;;;1999.90;999.90;;;;;;;21.89;76.32;101934.44;10544753;28;20048;-66
2023/10/07 14:43:12;;;;;;;1999.90;999.90;;;;;;;21.38;78.02;101940.59;10543181;28;20425;-66
2023/10/07 14:48:16;;;;;;;1999.90;999.90;;;;;;;21.00;79.63;101953.53;10544188;28;20401;-66
2023/10/07 14:53:18;;;;;;;1999.90;999.90;;;;;;;21.36;77.14;101934.56;10543457;28;20051;-66
2023/10/07 14:58:21;;;;;;;1999.90;999.90;;;;;;;21.62;76.76;101940.31;10543346;28;20131;-66
2023/10/07 15:03:23;;;;;;;1999.90;999.90;;;;;;;21.73;74.57;101939.41;10543079;28;20048;-67
2023/10/07 15:08:26;;;;;;;1999.90;999.90;;;;;;;21.84;75.00;101921.50;10544036;28;20052;-66
2023/10/07 15:13:29;;;;;;;1999.90;999.90;;;;;;;21.96;74.50;101900.91;10542979;28;20405;-66
2023/10/07 15:18:32;;;;;;;1999.90;999.90;;;;;;;23.46;67.36;101904.16;10541797;28;20130;-66
2023/10/07 15:23:35;;;;;;;1999.90;999.90;;;;;;;22.48;71.07;101889.22;10542711;28;20401;-72
2023/10/07 15:28:40;;;;;;;1999.90;999.90;;;;;;;21.85;73.51;101890.34;10523783;28;20048;-71
2023/10/07 15:34:04;;;;;;;1999.90;999.90;;;;;;;21.57;74.81;101891.91;10543064;28;20076;-71
2023/10/07 15:39:07;;;;;;;1999.90;999.90;;;;;;;21.52;75.75;101887.00;10542399;28;20067;-72
2023/10/07 15:44:09;;;;;;;1999.90;999.90;;;;;;;21.38;75.46;101905.97;10541301;28;20078;-72
2023/10/07 15:49:12;;;;;;;1999.90;999.90;;;;;;;21.27;75.23;101914.88;10542375;28;20052;-71
2023/10/07 15:54:17;;;;;;;1999.90;999.90;;;;;;;21.30;76.11;101954.56;10574764;27;20127;-71
2023/10/07 15:59:19;;;;;;;1999.90;999.90;;;;;;;21.03;75.95;101947.06;10542019;28;20094;-71
2023/10/07 16:04:24;;;;;;;1999.90;999.90;;;;;;;20.79;76.44;101964.13;10541720;28;20044;-71
2023/10/07 16:09:30;;;;;;;1999.90;999.90;;;;;;;20.56;77.53;101980.13;10540989;28;20550;-71
2023/10/07 16:14:34;;;;;;;1999.90;999.90;;;;;;;20.32;79.06;101977.63;10539695;28;20102;-71
2023/10/07 16:19:37;;;;;;;1999.90;999.90;;;;;;;20.01;79.97;101981.91;10541146;28;20083;-71
2023/10/07 16:24:40;;;;;;;1999.90;999.90;;;;;;;20.03;79.15;101990.59;10540327;28;20052;-71
2023/10/07 16:29:42;;;;;;;1999.90;999.90;;;;;;;19.67;80.21;101977.38;10539819;28;20062;-71
2023/10/07 16:34:47;;;;;;;1999.90;999.90;;;;;;;19.60;79.58;101967.31;10538887;28;20404;-71
2023/10/07 16:39:53;;;;;;;1999.90;999.90;;;;;;;19.57;80.96;101986.16;10539307;28;20048;-71
2023/10/07 16:44:56;;;;;;;1999.90;999.90;;;;;;;19.51;80.54;101987.47;10539249;28;20078;-71
2023/10/07 16:49:58;;;;;;;1999.90;999.90;;;;;;;19.49;81.73;101979.63;10539758;28;20079;-71
2023/10/07 16:55:06;;;;;;;1999.90;999.90;;;;;;;19.43;81.68;101958.88;10540310;28;20072;-71
2023/10/07 17:00:14;;;;;;;1999.90;999.90;;;;;;;19.47;82.85;101947.03;10539566;28;20078;-71
2023/10/07 17:05:16;;;;;;;1999.90;999.90;;;;;;;19.19;83.25;101945.63;10540008;28;20052;-71
2023/10/07 17:10:19;;;;;;;1999.90;999.90;;;;;;;19.22;84.50;101942.75;10539950;28;20131;-71
2023/10/07 17:15:21;;;;;;;1999.90;999.90;;;;;;;19.37;84.02;101939.91;10539011;28;20511;-71
2023/10/07 17:20:24;;;;;;;1999.90;999.90;;;;;;;19.27;84.62;101961.00;10539764;28;20127;-71
2023/10/07 17:25:29;;;;;;;1999.90;999.90;;;;;;;19.33;85.33;101962.34;10539109;28;20442;-71
2023/10/07 17:30:32;;;;;;;1999.90;999.90;;;;;;;19.03;87.03;101971.63;10538920;28;20052;-71
2023/10/07 17:35:35;;;;;;;1999.90;999.90;;;;;;;19.05;87.33;101961.78;10539434;28;20127;-71
2023/10/07 17:40:38;;;;;;;1999.90;999.90;;;;;;;19.12;87.68;101957.69;10538754;28;20127;-71
2023/10/07 17:45:41;;;;;;;1999.90;999.90;;;;;;;18.84;89.35;101958.91;10538545;28;20065;-71
2023/10/07 17:50:44;;;;;;;1999.90;999.90;;;;;;;18.85;90.16;101972.06;10541942;28;20480;-71
2023/10/07 17:55:46;;;;;;;1999.90;999.90;;;;;;;18.81;90.44;101961.75;10546980;28;20039;-71
2023/10/07 18:00:50;;;;;;;1999.90;999.90;;;;;;;18.67;92.78;101968.06;10546763;28;20044;-71
2023/10/07 18:05:55;;;;;;;1999.90;999.90;;;;;;;18.77;91.44;101969.09;10546470;28;20044;-71
2023/10/07 18:10:57;;;;;;;1999.90;999.90;;;;;;;18.63;92.89;101964.81;10546986;28;20044;-71
2023/10/07 18:16:00;;;;;;;1999.90;999.90;;;;;;;18.67;93.36;101971.56;10545521;28;20496;-71
2023/10/07 18:21:02;;;;;;;1999.90;999.90;;;;;;;18.68;93.77;101959.16;10546035;28;20306;-71
2023/10/07 18:26:05;;;;;;;1999.90;999.90;;;;;;;18.57;95.31;101968.72;10545090;28;20127;-71
2023/10/07 18:31:10;;;;;;;1999.90;999.90;;;;;;;18.52;95.81;101985.94;10544391;28;20059;-71
2023/10/07 18:36:13;;;;;;;1999.90;999.90;;;;;;;18.28;98.03;101993.88;10544216;28;20454;-71
2023/10/07 18:41:16;;;;;;;1999.90;999.90;;;;;;;18.38;99.11;101986.94;10545255;28;20052;-71
2023/10/07 18:46:18;;;;;;;1999.90;999.90;;;;;;;18.52;97.03;102008.00;10544249;28;20131;-71
2023/10/07 18:51:21;;;;;;;1999.90;999.90;;;;;;;18.30;100.00;102035.19;10543686;28;20101;-71
2023/10/07 18:56:23;;;;;;;1999.90;999.90;;;;;;;18.04;100.00;102026.44;10544606;28;20050;-71
2023/10/07 19:01:26;;;;;;;1999.90;999.90;;;;;;;18.05;100.00;102014.03;10544256;28;20048;-71
2023/10/07 19:06:28;;;;;;;1999.90;999.90;;;;;;;17.98;100.00;102001.19;10544154;28;20047;-70
2023/10/07 19:11:31;;;;;;;1999.90;999.90;;;;;;;18.11;100.00;102006.50;10544006;28;20056;-71
2023/10/07 19:16:34;;;;;;;1999.90;999.90;;;;;;;18.17;100.00;101997.25;10541957;28;20059;-71
2023/10/07 19:21:36;;;;;;;1999.90;999.90;;;;;;;18.17;100.00;101994.59;10542966;28;20482;-71
2023/10/07 19:26:38;;;;;;;1999.90;999.90;;;;;;;18.33;100.00;101997.03;10542696;28;20055;-71
2023/10/07 19:31:41;;;;;;;1999.90;999.90;;;;;;;18.38;100.00;101997.56;10543162;28;20126;-71
2023/10/07 19:36:43;;;;;;;1999.90;999.90;;;;;;;18.25;100.00;102029.38;10575432;27;20044;-71
2023/10/07 19:41:47;;;;;;;1999.90;999.90;;;;;;;18.30;100.00;102042.31;10542169;28;20507;-71
2023/10/07 19:46:50;;;;;;;1999.90;999.90;;;;;;;18.07;100.00;102043.91;10541881;28;20400;-71
2023/10/07 19:51:52;;;;;;;1999.90;999.90;;;;;;;18.08;100.00;102085.38;10541751;28;20483;-71
2023/10/07 19:56:54;;;;;;;1999.90;999.90;;;;;;;17.79;100.00;102077.59;10540394;28;20087;-71
2023/10/07 20:01:57;;;;;;;1999.90;999.90;;;;;;;17.92;100.00;102086.44;10574015;27;20542;-71
2023/10/07 20:06:59;;;;;;;1999.90;999.90;;;;;;;18.04;100.00;102075.91;10541696;28;20101;-71
2023/10/07 20:12:02;;;;;;;1999.90;999.90;;;;;;;18.01;100.00;102077.84;10539971;28;20048;-71
2023/10/07 20:17:05;;;;;;;1999.90;999.90;;;;;;;17.95;100.00;102069.47;10540749;28;20047;-71
2023/10/07 20:22:07;;;;;;;1999.90;999.90;;;;;;;18.13;100.00;102064.69;10541276;28;20059;-70
2023/10/07 20:27:09;;;;;;;1999.90;999.90;;;;;;;18.01;100.00;102059.28;10573705;27;20048;-71
2023/10/07 20:32:12;;;;;;;1999.90;999.90;;;;;;;18.15;100.00;102049.53;10573560;27;20048;-71
2023/10/07 20:37:15;;;;;;;1999.90;999.90;;;;;;;18.14;100.00;102037.22;10540808;28;20075;-71
2023/10/07 20:42:17;;;;;;;1999.90;999.90;;;;;;;18.09;100.00;102044.66;10540661;28;20055;-71
2023/10/07 20:47:22;;;;;;;1999.90;999.90;;;;;;;18.13;100.00;102064.69;10539254;28;20131;-71
2023/10/07 20:52:25;;;;;;;1999.90;999.90;;;;;;;18.19;100.00;102061.63;10540399;28;20052;-70
2023/10/07 20:57:27;;;;;;;1999.90;999.90;;;;;;;18.10;100.00;102059.59;10540206;28;20044;-70
2023/10/07 21:02:30;;;;;;;1999.90;999.90;;;;;;;18.06;100.00;102055.50;10540100;28;20074;-70
2023/10/07 21:07:33;;;;;;;1999.90;999.90;;;;;;;18.13;100.00;102052.28;10538758;28;20116;-70
2023/10/07 21:12:35;;;;;;;1999.90;999.90;;;;;;;18.07;100.00;102066.00;10537988;28;20082;-70
2023/10/07 21:17:38;;;;;;;1999.90;999.90;;;;;;;18.06;100.00;102044.88;10539794;28;20068;-71
2023/10/07 21:22:41;;;;;;;1999.90;999.90;;;;;;;18.07;100.00;102058.03;10539739;28;20074;-71
2023/10/07 21:27:43;;;;;;;1999.90;999.90;;;;;;;18.05;100.00;102067.03;10545902;28;20486;-71
2023/10/07 21:32:46;;;;;;;1999.90;999.90;;;;;;;18.01;100.00;102083.13;10547341;28;20054;-73
2023/10/07 21:37:48;;;;;;;1999.90;999.90;;;;;;;18.08;100.00;102070.31;10547092;28;20051;-70
2023/10/07 21:42:51;;;;;;;1999.90;999.90;;;;;;;18.10;100.00;102067.56;10546920;28;20404;-71
2023/10/07 21:47:53;;;;;;;1999.90;999.90;;;;;;;18.02;100.00;102062.78;10547268;28;20058;-70
2023/10/07 21:52:56;;;;;;;1999.90;999.90;;;;;;;18.04;100.00;102052.94;10547145;28;20060;-70
2023/10/07 21:57:59;;;;;;;1999.90;999.90;;;;;;;18.08;99.08;102053.56;10545164;28;20052;-71
2023/10/07 22:03:01;;;;;;;1999.90;999.90;;;;;;;18.04;98.34;102060.91;10544878;28;20127;-71
2023/10/07 22:08:07;;;;;;;1999.90;999.90;;;;;;;18.05;98.31;102067.88;10545898;28;20420;-71
2023/10/07 22:13:12;;;;;;;1999.90;999.90;;;;;;;17.97;97.46;102065.75;10546100;28;20136;-70
2023/10/07 22:18:18;;;;;;;1999.90;999.90;;;;;;;18.00;97.50;102051.44;10546148;28;20050;-70
2023/10/07 22:23:21;;;;;;;1999.90;999.90;;;;;;;18.00;97.30;102075.28;10545982;28;20078;-70
2023/10/07 22:28:26;;;;;;;1999.90;999.90;;;;;;;17.97;96.79;102067.53;10543997;28;20507;-70
2023/10/07 22:33:31;;;;;;;1999.90;999.90;;;;;;;17.90;97.82;102085.66;10544557;28;20039;-70
2023/10/07 22:38:33;;;;;;;1999.90;999.90;;;;;;;17.89;97.10;102085.81;10544914;28;20052;-71
2023/10/07 22:43:38;;;;;;;1999.90;999.90;;;;;;;17.91;97.02;102068.81;10543918;28;20105;-70
2023/10/07 22:48:46;;;;;;;1999.90;999.90;;;;;;;17.93;97.16;102082.81;10544398;28;20055;-71
2023/10/07 22:54:01;;;;;;;1999.90;999.90;;;;;;;17.94;97.10;102084.53;10544913;28;20123;-71